Time;durP1;ratioP1;P1;durP2;ratioP2;P2;SDS_P1;SDS_P2;PMS_P1;PMS_P2;Temp;Humidity;BMP_temperature;BMP_pressure;BME280_temperature;BME280_humidity;BME280_pressure;Samples;Min_cycle;Max_cycle;Signal;HPM_P1;HPM_P2
2022/10/13 00:01:11;;;;;;;24.70;20.30;;;11.60;99.90;;;;;;6035381;23;20192;-75
2022/10/13 00:03:39;;;;;;;25.65;19.80;;;11.60;99.90;;;;;;6077993;23;20247;-75
2022/10/13 00:06:08;;;;;;;21.15;19.13;;;11.70;99.90;;;;;;6102502;23;20196;-75
2022/10/13 00:08:37;;;;;;;24.40;20.05;;;11.70;99.90;;;;;;6072157;23;20706;-75
2022/10/13 00:11:10;;;;;;;19.27;17.27;;;11.70;99.90;;;;;;6108689;23;20195;-76
2022/10/13 00:13:38;;;;;;;21.55;18.67;;;11.70;99.90;;;;;;6092543;23;20244;-75
2022/10/13 00:16:05;;;;;;;21.60;19.27;;;11.70;99.90;;;;;;6080059;23;20223;-75
2022/10/13 00:18:32;;;;;;;20.92;18.83;;;11.80;99.90;;;;;;6089664;23;20637;-76
2022/10/13 00:21:00;;;;;;;19.63;17.55;;;11.80;99.90;;;;;;6099398;23;20207;-76
2022/10/13 00:23:27;;;;;;;20.20;18.15;;;11.90;99.90;;;;;;6100746;23;20289;-75
2022/10/13 00:25:56;;;;;;;20.02;18.00;;;11.90;99.90;;;;;;6092266;23;20199;-75
2022/10/13 00:28:23;;;;;;;19.80;17.80;;;11.90;99.90;;;;;;6089634;23;20598;-75
2022/10/13 00:30:50;;;;;;;23.48;21.05;;;11.90;99.90;;;;;;6072896;23;20196;-75
2022/10/13 00:33:17;;;;;;;21.58;19.48;;;11.90;99.90;;;;;;6060239;23;20231;-76
2022/10/13 00:35:47;;;;;;;24.08;19.60;;;11.90;99.90;;;;;;6099959;23;20326;-75
2022/10/13 00:38:16;;;;;;;20.20;18.00;;;12.00;99.90;;;;;;6096798;23;20447;-75
2022/10/13 00:40:44;;;;;;;22.67;20.27;;;11.90;99.90;;;;;;6070852;23;20878;-75
2022/10/13 00:43:18;;;;;;;20.80;18.60;;;11.90;99.90;;;;;;6097657;23;20223;-76
2022/10/13 00:45:45;;;;;;;20.58;18.48;;;11.90;99.90;;;;;;6096587;23;20531;-75
2022/10/13 00:48:13;;;;;;;23.75;19.60;;;11.90;99.90;;;;;;6070618;23;20250;-75
2022/10/13 00:50:42;;;;;;;20.63;18.50;;;11.90;99.90;;;;;;6106619;23;20199;-75
2022/10/13 00:53:11;;;;;;;23.58;18.55;;;11.90;99.90;;;;;;6095093;23;20225;-76
2022/10/13 00:55:40;;;;;;;20.52;18.33;;;11.90;99.90;;;;;;6095364;23;20202;-75
2022/10/13 00:58:09;;;;;;;25.40;18.77;;;11.90;99.90;;;;;;6073109;23;20263;-75
2022/10/13 01:00:38;;;;;;;21.88;18.52;;;11.90;99.90;;;;;;6094060;23;20196;-75
2022/10/13 01:03:05;;;;;;;20.75;18.30;;;11.90;99.90;;;;;;6092209;23;20219;-76
2022/10/13 01:05:33;;;;;;;20.27;18.15;;;11.90;99.90;;;;;;6095812;23;20227;-75
2022/10/13 01:08:02;;;;;;;21.73;18.65;;;11.90;99.90;;;;;;6057324;23;20226;-75
2022/10/13 01:10:41;;;;;;;19.60;17.55;;;11.80;99.90;;;;;;6091186;23;20675;-75
2022/10/13 01:13:14;;;;;;;22.23;19.75;;;11.80;99.90;;;;;;6094403;23;20680;-75
2022/10/13 01:15:50;;;;;;;23.00;20.48;;;11.80;99.90;;;;;;6072684;23;20196;-75
2022/10/13 01:18:25;;;;;;;23.23;19.77;;;11.80;99.90;;;;;;6100386;23;20222;-76
2022/10/13 01:21:14;;;;;;;21.30;19.05;;;11.80;99.90;;;;;;6073948;23;20537;-75
2022/10/13 01:24:21;;;;;;;24.08;19.73;;;11.80;99.90;;;;;;6068808;23;20208;-75
2022/10/13 01:27:05;;;;;;;21.13;18.85;;;11.80;99.90;;;;;;6116523;23;20191;-75
2022/10/13 01:30:02;;;;;;;21.25;19.02;;;11.70;99.90;;;;;;6105047;23;20196;-75
2022/10/13 01:32:36;;;;;;;21.45;18.92;;;11.70;99.90;;;;;;6108792;23;20188;-75
2022/10/13 01:35:09;;;;;;;23.15;18.50;;;11.70;99.90;;;;;;6076856;23;20214;-75
2022/10/13 01:37:45;;;;;;;22.90;20.60;;;11.70;99.90;;;;;;6090319;23;20197;-75
2022/10/13 01:40:18;;;;;;;23.67;19.65;;;11.70;99.90;;;;;;6066526;23;20230;-75
2022/10/13 01:42:53;;;;;;;22.52;20.05;;;11.70;99.90;;;;;;6067460;23;20215;-75
2022/10/13 01:45:25;;;;;;;21.70;19.50;;;11.60;99.90;;;;;;6051298;23;20221;-75
2022/10/13 01:47:53;;;;;;;23.38;20.90;;;11.60;99.90;;;;;;6097325;23;20195;-76
2022/10/13 01:50:21;;;;;;;27.23;20.92;;;11.50;99.90;;;;;;6068486;23;20196;-75
2022/10/13 01:52:49;;;;;;;23.42;20.92;;;11.50;99.90;;;;;;6066456;23;20227;-75
2022/10/13 01:55:17;;;;;;;23.75;21.23;;;11.50;99.90;;;;;;6096193;23;20266;-75
2022/10/13 01:57:45;;;;;;;23.70;20.65;;;11.50;99.90;;;;;;6104787;23;20191;-75
2022/10/13 02:00:15;;;;;;;21.98;19.20;;;11.40;99.90;;;;;;6062726;23;20208;-75
2022/10/13 02:02:53;;;;;;;23.52;20.70;;;11.40;99.90;;;;;;6064485;23;20697;-75
2022/10/13 02:05:30;;;;;;;23.10;20.70;;;11.40;99.90;;;;;;6057354;23;20267;-74
2022/10/13 02:08:05;;;;;;;22.20;19.98;;;11.40;99.90;;;;;;6093693;23;20646;-75
2022/10/13 02:10:39;;;;;;;22.25;19.95;;;11.40;99.90;;;;;;6108546;23;20203;-75
2022/10/13 02:13:11;;;;;;;23.50;21.10;;;11.30;99.90;;;;;;6067113;23;20270;-75
2022/10/13 02:15:41;;;;;;;22.95;20.55;;;11.30;99.90;;;;;;6046632;23;20196;-75
2022/10/13 02:18:14;;;;;;;27.83;21.77;;;11.30;99.90;;;;;;6100613;23;20231;-75
2022/10/13 02:20:43;;;;;;;30.13;23.67;;;11.30;99.90;;;;;;6085586;23;20274;-75
2022/10/13 02:23:12;;;;;;;25.48;22.50;;;11.20;99.90;;;;;;6093561;23;20225;-76
2022/10/13 02:25:40;;;;;;;25.42;21.77;;;11.20;99.90;;;;;;6093254;23;20220;-75
2022/10/13 02:28:08;;;;;;;26.45;22.45;;;11.30;99.90;;;;;;6088978;23;20203;-75
2022/10/13 02:30:35;;;;;;;24.63;22.08;;;11.20;99.90;;;;;;6065274;23;20231;-75
2022/10/13 02:33:03;;;;;;;27.88;22.38;;;11.30;99.90;;;;;;6091330;23;20204;-75
2022/10/13 02:35:32;;;;;;;29.30;23.42;;;11.30;99.90;;;;;;6106644;23;20283;-76
2022/10/13 02:37:59;;;;;;;27.88;22.60;;;11.40;99.90;;;;;;6093282;23;20278;-75
2022/10/13 02:40:27;;;;;;;25.38;22.67;;;11.40;99.90;;;;;;6066302;23;20196;-75
2022/10/13 02:42:55;;;;;;;25.17;22.38;;;11.40;99.90;;;;;;6091214;23;20290;-75
2022/10/13 02:45:22;;;;;;;24.92;22.30;;;11.40;99.90;;;;;;6100501;23;20270;-75
2022/10/13 02:47:50;;;;;;;25.20;22.58;;;11.40;99.90;;;;;;6091187;23;20191;-75
2022/10/13 02:50:17;;;;;;;25.55;22.20;;;11.40;99.90;;;;;;6087073;23;20195;-75
2022/10/13 02:52:46;;;;;;;27.08;22.38;;;11.40;99.90;;;;;;6098061;23;20222;-75
2022/10/13 02:55:13;;;;;;;28.67;23.73;;;11.40;99.90;;;;;;6093969;23;20192;-75
2022/10/13 02:57:40;;;;;;;27.00;22.50;;;11.40;99.90;;;;;;6107993;23;20211;-75
2022/10/13 03:00:08;;;;;;;27.00;23.70;;;11.40;99.90;;;;;;6084725;23;20278;-75
2022/10/13 03:02:35;;;;;;;29.02;23.52;;;11.40;99.90;;;;;;6071931;23;20196;-75
2022/10/13 03:05:02;;;;;;;27.92;24.08;;;11.40;99.90;;;;;;6102274;23;20794;-75
2022/10/13 03:07:30;;;;;;;30.17;23.70;;;11.50;99.90;;;;;;6082658;23;20265;-75
2022/10/13 03:09:58;;;;;;;26.23;23.00;;;11.50;99.90;;;;;;6063931;23;20230;-75
2022/10/13 03:12:25;;;;;;;26.98;23.70;;;11.40;99.90;;;;;;6075481;23;20275;-75
2022/10/13 03:14:53;;;;;;;35.38;25.02;;;11.40;99.90;;;;;;6088991;23;20752;-75
2022/10/13 03:17:20;;;;;;;36.95;24.55;;;11.30;99.90;;;;;;6090298;23;20249;-75
2022/10/13 03:19:47;;;;;;;28.48;24.73;;;11.30;99.90;;;;;;6074604;23;20665;-75
2022/10/13 03:22:14;;;;;;;30.00;25.35;;;11.40;99.90;;;;;;6091748;23;20275;-75
2022/10/13 03:24:41;;;;;;;30.30;24.45;;;11.40;99.90;;;;;;6069170;23;20212;-75
2022/10/13 03:27:10;;;;;;;29.73;26.50;;;11.40;99.90;;;;;;6098401;23;20219;-75
2022/10/13 03:29:37;;;;;;;27.65;24.33;;;11.40;99.90;;;;;;6108810;23;20795;-75
2022/10/13 03:32:05;;;;;;;30.20;25.90;;;11.40;99.90;;;;;;6090338;23;20242;-75
2022/10/13 03:34:32;;;;;;;31.33;25.67;;;11.40;99.90;;;;;;6102166;23;20668;-75
2022/10/13 03:37:00;;;;;;;29.27;24.45;;;11.40;99.90;;;;;;6087422;23;20214;-75
2022/10/13 03:39:27;;;;;;;27.65;23.30;;;11.40;99.90;;;;;;6090088;23;20192;-75
2022/10/13 03:41:54;;;;;;;30.58;24.40;;;11.40;99.90;;;;;;6065843;23;20231;-75
2022/10/13 03:44:23;;;;;;;31.63;26.38;;;11.40;99.90;;;;;;6096125;23;20224;-75
2022/10/13 03:46:50;;;;;;;30.92;25.92;;;11.40;99.90;;;;;;6054060;23;20192;-75
2022/10/13 03:49:17;;;;;;;31.67;25.77;;;11.40;99.90;;;;;;6104711;23;20242;-75
2022/10/13 03:51:44;;;;;;;31.83;26.42;;;11.50;99.90;;;;;;6080930;23;20271;-75
2022/10/13 03:54:12;;;;;;;31.63;25.92;;;11.40;99.90;;;;;;6102845;23;20330;-75
2022/10/13 03:56:41;;;;;;;32.33;25.10;;;11.40;99.90;;;;;;6092081;23;20827;-75
2022/10/13 03:59:11;;;;;;;36.70;27.30;;;11.50;99.90;;;;;;6093012;23;20196;-75
2022/10/13 04:01:40;;;;;;;31.65;26.83;;;11.50;99.90;;;;;;6089852;23;20286;-75
2022/10/13 04:04:10;;;;;;;30.55;26.05;;;11.60;99.90;;;;;;6089873;23;20211;-76
2022/10/13 04:06:37;;;;;;;26.15;23.10;;;11.60;99.90;;;;;;6094650;23;20275;-75
2022/10/13 04:09:04;;;;;;;27.00;23.42;;;11.60;99.90;;;;;;6082572;23;20220;-75
2022/10/13 04:11:31;;;;;;;28.67;24.33;;;11.60;99.90;;;;;;6103004;23;20200;-75
2022/10/13 04:13:59;;;;;;;29.15;23.63;;;11.60;99.90;;;;;;6103509;23;20263;-75
2022/10/13 04:16:28;;;;;;;25.48;22.80;;;11.60;99.90;;;;;;6092729;23;20192;-75
2022/10/13 04:18:58;;;;;;;35.45;27.15;;;11.60;99.90;;;;;;6078370;23;20192;-75
2022/10/13 04:21:27;;;;;;;31.55;25.15;;;11.70;99.90;;;;;;6110049;23;20688;-75
2022/10/13 04:23:57;;;;;;;31.73;25.35;;;11.70;99.90;;;;;;6080323;23;20685;-75
2022/10/13 04:26:25;;;;;;;29.98;23.90;;;11.70;99.90;;;;;;6101903;23;20541;-76
2022/10/13 04:28:55;;;;;;;26.35;22.85;;;11.60;99.90;;;;;;6100593;23;20203;-76
2022/10/13 04:31:24;;;;;;;28.48;22.40;;;11.70;99.90;;;;;;6086246;23;20193;-77
2022/10/13 04:33:51;;;;;;;25.60;22.73;;;11.70;99.90;;;;;;6059965;23;20625;-76
2022/10/13 04:36:21;;;;;;;26.23;23.05;;;11.70;99.90;;;;;;6095769;23;20274;-74
2022/10/13 04:38:48;;;;;;;24.55;20.95;;;11.70;99.90;;;;;;6101964;23;20213;-74
2022/10/13 04:41:16;;;;;;;24.55;21.90;;;11.70;99.90;;;;;;6092055;23;20639;-75
2022/10/13 04:43:46;;;;;;;24.02;21.63;;;11.70;99.90;;;;;;6080464;23;20569;-76
2022/10/13 04:46:17;;;;;;;23.98;21.52;;;11.70;99.90;;;;;;6093188;23;20195;-76
2022/10/13 04:48:45;;;;;;;25.88;21.30;;;11.70;99.90;;;;;;6078048;23;20223;-76
2022/10/13 04:51:14;;;;;;;25.20;22.40;;;11.70;99.90;;;;;;6075709;23;20203;-76
2022/10/13 04:53:43;;;;;;;22.65;20.35;;;11.60;99.90;;;;;;6102249;23;20207;-76
2022/10/13 04:56:13;;;;;;;24.42;19.95;;;11.60;99.90;;;;;;6097854;23;20222;-76
2022/10/13 04:58:41;;;;;;;26.38;21.75;;;11.60;99.90;;;;;;6077116;23;20282;-76
2022/10/13 05:01:12;;;;;;;22.83;20.20;;;11.60;99.90;;;;;;6061532;23;20215;-76
2022/10/13 05:03:41;;;;;;;23.08;19.90;;;11.60;99.90;;;;;;6069710;23;20230;-76
2022/10/13 05:06:14;;;;;;;24.05;19.95;;;11.60;99.90;;;;;;6093518;23;20249;-77
2022/10/13 05:08:43;;;;;;;23.70;21.25;;;11.50;99.90;;;;;;6083026;23;20196;-76
2022/10/13 05:11:10;;;;;;;22.33;19.95;;;11.50;99.90;;;;;;6080528;23;20188;-76
2022/10/13 05:13:37;;;;;;;23.00;19.67;;;11.50;99.90;;;;;;6077832;23;20192;-76
2022/10/13 05:16:08;;;;;;;22.33;19.33;;;11.50;99.90;;;;;;6109739;23;20410;-76
2022/10/13 05:18:36;;;;;;;22.30;19.67;;;11.40;99.90;;;;;;6111791;23;20210;-76
2022/10/13 05:21:08;;;;;;;24.15;20.10;;;11.40;99.90;;;;;;6078830;23;20218;-76
2022/10/13 05:23:35;;;;;;;22.00;19.75;;;11.40;99.90;;;;;;6103391;23;20239;-77
2022/10/13 05:26:06;;;;;;;23.85;19.45;;;11.40;99.90;;;;;;6095515;23;20192;-76
2022/10/13 05:28:35;;;;;;;22.55;20.17;;;11.40;99.90;;;;;;6100887;23;20275;-76
2022/10/13 05:31:12;;;;;;;24.42;20.30;;;11.40;99.90;;;;;;6105781;23;20223;-77
2022/10/13 05:33:41;;;;;;;20.98;18.77;;;11.40;99.90;;;;;;6101027;23;20184;-76
2022/10/13 05:36:10;;;;;;;21.85;18.25;;;11.30;99.90;;;;;;6096424;23;20680;-76
2022/10/13 05:38:37;;;;;;;21.73;19.52;;;11.30;99.90;;;;;;6085951;23;20654;-77
2022/10/13 05:41:09;;;;;;;21.88;19.58;;;11.40;99.90;;;;;;6106387;23;20274;-76
2022/10/13 05:43:38;;;;;;;21.67;19.38;;;11.40;99.90;;;;;;6079937;23;20207;-77
2022/10/13 05:46:07;;;;;;;21.40;19.27;;;11.40;99.90;;;;;;6080212;23;20640;-77
2022/10/13 05:48:34;;;;;;;21.88;19.73;;;11.40;99.90;;;;;;6095077;23;20216;-77
2022/10/13 05:51:06;;;;;;;21.83;19.52;;;11.40;99.90;;;;;;6091505;23;20223;-77
2022/10/13 05:53:37;;;;;;;20.35;18.15;;;11.40;99.90;;;;;;6077216;23;20222;-77
2022/10/13 05:56:11;;;;;;;22.08;18.75;;;11.40;99.90;;;;;;6080670;23;20187;-76
2022/10/13 05:58:42;;;;;;;21.60;18.92;;;11.40;99.90;;;;;;6102707;23;20187;-76
2022/10/13 06:01:13;;;;;;;22.85;18.50;;;11.40;99.90;;;;;;6087926;23;20219;-76
2022/10/13 06:03:41;;;;;;;21.55;18.95;;;11.60;99.90;;;;;;6098041;23;20612;-76
2022/10/13 06:06:09;;;;;;;20.95;18.20;;;11.40;99.90;;;;;;6103623;23;20183;-76
2022/10/13 06:08:37;;;;;;;21.98;19.70;;;11.40;99.90;;;;;;6103046;23;20198;-76
2022/10/13 06:11:07;;;;;;;20.85;18.52;;;11.50;99.90;;;;;;6091463;23;20191;-76
2022/10/13 06:13:34;;;;;;;22.17;19.88;;;11.50;99.90;;;;;;6066194;23;20645;-76
2022/10/13 06:16:02;;;;;;;23.13;17.90;;;11.60;99.90;;;;;;6095839;23;20196;-76
2022/10/13 06:18:30;;;;;;;20.63;17.55;;;11.60;99.90;;;;;;6103117;23;20208;-76
2022/10/13 06:20:57;;;;;;;19.80;17.80;;;11.60;99.90;;;;;;6104408;23;20195;-76
2022/10/13 06:23:24;;;;;;;19.90;17.58;;;11.70;99.90;;;;;;6102154;23;20188;-76
2022/10/13 06:25:53;;;;;;;19.48;17.58;;;11.70;99.90;;;;;;6091124;23;20290;-77
2022/10/13 06:28:21;;;;;;;19.60;17.73;;;11.80;99.90;;;;;;6097854;23;20241;-76
2022/10/13 06:30:53;;;;;;;19.10;16.35;;;11.80;99.90;;;;;;6102774;23;20196;-77
2022/10/13 06:33:21;;;;;;;19.20;16.60;;;11.80;99.90;;;;;;6076724;23;20192;-77
2022/10/13 06:35:48;;;;;;;18.67;16.70;;;11.90;99.90;;;;;;6097881;23;20192;-76
2022/10/13 06:38:15;;;;;;;19.08;17.02;;;11.90;99.90;;;;;;6113905;23;20194;-76
2022/10/13 06:40:42;;;;;;;23.08;17.55;;;11.90;99.90;;;;;;6083091;23;20188;-76
2022/10/13 06:43:10;;;;;;;19.13;17.08;;;12.00;99.90;;;;;;6071874;23;20642;-77
2022/10/13 06:45:39;;;;;;;19.45;17.33;;;12.00;99.90;;;;;;6097737;23;20290;-76
2022/10/13 06:48:06;;;;;;;19.67;16.98;;;11.90;99.90;;;;;;6101103;23;20223;-76
2022/10/13 06:50:34;;;;;;;21.45;17.48;;;12.00;99.90;;;;;;6076515;23;20192;-76
2022/10/13 06:53:01;;;;;;;19.73;17.67;;;12.00;99.90;;;;;;6074462;23;20250;-76
2022/10/13 06:55:28;;;;;;;19.00;17.13;;;12.00;99.90;;;;;;6095189;23;20278;-76
2022/10/13 06:57:55;;;;;;;18.95;16.95;;;12.10;99.90;;;;;;6075447;23;20222;-76
2022/10/13 07:00:22;;;;;;;18.52;16.63;;;12.10;99.90;;;;;;6106875;23;20274;-76
2022/10/13 07:02:52;;;;;;;19.02;17.02;;;12.20;99.90;;;;;;6067222;23;20273;-76
2022/10/13 07:05:19;;;;;;;18.70;16.70;;;12.10;99.90;;;;;;6077314;23;20231;-76
2022/10/13 07:07:46;;;;;;;21.90;18.00;;;12.10;99.90;;;;;;6100425;23;20350;-76
2022/10/13 07:10:14;;;;;;;20.90;18.65;;;12.20;99.90;;;;;;6065811;23;20184;-76
2022/10/13 07:12:41;;;;;;;20.05;17.95;;;12.20;99.90;;;;;;6080299;23;20668;-76
2022/10/13 07:15:09;;;;;;;19.88;16.80;;;12.20;99.90;;;;;;6107465;23;20238;-76
2022/10/13 07:17:37;;;;;;;19.67;17.65;;;12.20;99.90;;;;;;6101634;23;20191;-76
2022/10/13 07:20:07;;;;;;;19.58;17.67;;;12.20;99.90;;;;;;6092909;23;20192;-76
2022/10/13 07:22:34;;;;;;;19.00;17.00;;;12.30;99.90;;;;;;6066884;23;20192;-76
2022/10/13 07:25:02;;;;;;;23.52;18.05;;;12.30;99.90;;;;;;6105452;23;20218;-76
2022/10/13 07:27:29;;;;;;;19.27;17.38;;;12.30;99.90;;;;;;6108956;23;20198;-77
2022/10/13 07:29:56;;;;;;;19.30;17.38;;;12.30;99.90;;;;;;6094648;23;20188;-76
2022/10/13 07:32:23;;;;;;;19.70;17.02;;;12.30;99.90;;;;;;6078370;23;20214;-77
2022/10/13 07:34:53;;;;;;;21.58;18.30;;;12.30;99.90;;;;;;6071763;23;20189;-76
2022/10/13 07:37:22;;;;;;;22.40;17.95;;;12.30;99.90;;;;;;6056723;23;20195;-76
2022/10/13 07:39:50;;;;;;;21.83;18.05;;;12.30;99.90;;;;;;6105459;23;20219;-76
2022/10/13 07:42:18;;;;;;;21.75;19.55;;;12.40;99.90;;;;;;6108931;23;20198;-76
2022/10/13 07:44:45;;;;;;;20.92;18.70;;;12.50;99.90;;;;;;6077985;23;20212;-77
2022/10/13 07:47:12;;;;;;;18.40;16.40;;;12.70;99.90;;;;;;6102711;23;20557;-76
2022/10/13 07:49:39;;;;;;;19.40;17.17;;;12.90;99.90;;;;;;6108640;23;20617;-76
2022/10/13 07:52:06;;;;;;;18.50;15.77;;;13.10;99.90;;;;;;6103310;23;20539;-76
2022/10/13 07:54:35;;;;;;;19.23;14.87;;;13.50;99.90;;;;;;6078643;23;20426;-77
2022/10/13 07:57:03;;;;;;;19.03;16.40;;;13.70;99.90;;;;;;6091969;23;20451;-76
2022/10/13 07:59:32;;;;;;;17.40;14.07;;;14.00;99.90;;;;;;6079192;23;20837;-76
2022/10/13 08:02:00;;;;;;;15.97;13.67;;;14.20;99.90;;;;;;6106963;23;20519;-77
2022/10/13 08:04:29;;;;;;;16.10;14.40;;;14.40;99.90;;;;;;6106069;23;20494;-77
2022/10/13 08:06:57;;;;;;;19.10;15.20;;;14.50;99.90;;;;;;6077888;23;20942;-77
2022/10/13 08:09:24;;;;;;;18.97;14.37;;;14.70;99.90;;;;;;6054570;23;20935;-76
2022/10/13 08:11:53;;;;;;;18.90;14.07;;;14.70;99.90;;;;;;6105102;23;20787;-76
2022/10/13 08:14:21;;;;;;;16.23;14.53;;;14.80;99.90;;;;;;6075906;23;20427;-77
2022/10/13 08:16:49;;;;;;;15.73;13.70;;;14.70;99.90;;;;;;6067167;23;20449;-76
2022/10/13 08:19:17;;;;;;;17.67;14.03;;;14.50;99.90;;;;;;6080258;23;20487;-76
2022/10/13 08:21:45;;;;;;;16.70;14.40;;;14.50;99.90;;;;;;6097357;23;20462;-76
2022/10/13 08:24:14;;;;;;;14.97;13.10;;;14.50;99.90;;;;;;6097144;23;20429;-76
2022/10/13 08:26:42;;;;;;;15.77;14.07;;;14.70;99.90;;;;;;6108368;23;20469;-77
2022/10/13 08:29:11;;;;;;;17.00;14.03;;;14.90;99.90;;;;;;6078412;23;20426;-77
2022/10/13 08:31:38;;;;;;;15.07;12.87;;;15.20;99.90;;;;;;6098847;23;20452;-77
2022/10/13 08:34:05;;;;;;;14.40;11.90;;;15.60;99.90;;;;;;6102654;23;20437;-76
2022/10/13 08:36:32;;;;;;;17.20;11.67;;;15.80;99.90;;;;;;6094087;23;20431;-76
2022/10/13 08:39:00;;;;;;;14.97;13.00;;;16.00;99.90;;;;;;6113158;23;20429;-77
2022/10/13 08:41:31;;;;;;;15.30;11.87;;;16.30;99.90;;;;;;6078576;23;20434;-76
2022/10/13 08:44:03;;;;;;;14.10;10.90;;;16.60;99.90;;;;;;6094494;23;20434;-77
2022/10/13 08:46:39;;;;;;;12.40;11.10;;;17.00;99.90;;;;;;6079065;23;20462;-76
2022/10/13 08:49:07;;;;;;;12.67;11.43;;;17.40;99.90;;;;;;6103254;23;20445;-77
2022/10/13 08:51:35;;;;;;;13.83;12.43;;;17.50;99.90;;;;;;6101584;23;20445;-77
2022/10/13 08:54:04;;;;;;;13.80;10.73;;;17.60;99.90;;;;;;6099686;23;20472;-76
2022/10/13 08:56:34;;;;;;;13.40;12.00;;;17.60;99.90;;;;;;6094181;23;20512;-76
2022/10/13 08:59:05;;;;;;;13.90;12.07;;;17.50;99.90;;;;;;6096457;23;20426;-76
2022/10/13 09:01:36;;;;;;;12.73;11.37;;;17.50;99.90;;;;;;6092047;23;20434;-77
2022/10/13 09:04:24;;;;;;;12.33;11.13;;;17.40;99.90;;;;;;6076519;23;20475;-76
2022/10/13 09:06:55;;;;;;;14.20;11.30;;;17.30;99.90;;;;;;6072135;23;20597;-77
2022/10/13 09:09:23;;;;;;;13.03;11.73;;;17.00;99.90;;;;;;6099305;23;20445;-77
2022/10/13 09:11:51;;;;;;;13.40;11.27;;;16.70;99.90;;;;;;6109643;23;20476;-76
2022/10/13 09:14:23;;;;;;;16.13;10.90;;;16.70;99.90;;;;;;6099270;23;20856;-77
2022/10/13 09:16:53;;;;;;;11.40;10.20;;;16.80;99.90;;;;;;6081167;23;20438;-77
2022/10/13 09:19:24;;;;;;;11.63;10.53;;;17.00;99.90;;;;;;6102667;23;20512;-77
2022/10/13 09:21:54;;;;;;;16.13;10.40;;;17.10;99.90;;;;;;6100392;23;20993;-76
2022/10/13 09:24:23;;;;;;;11.77;10.57;;;17.20;99.90;;;;;;6103414;23;20789;-76
2022/10/13 09:27:02;;;;;;;10.53;9.53;;;17.30;99.90;;;;;;6110740;23;20489;-76
2022/10/13 09:29:30;;;;;;;10.47;9.47;;;17.50;99.90;;;;;;6103879;23;20453;-76
2022/10/13 09:32:15;;;;;;;11.00;9.90;;;17.60;99.90;;;;;;6106334;23;20462;-76
2022/10/13 09:34:42;;;;;;;12.97;9.60;;;17.40;99.90;;;;;;6107244;23;20760;-77
2022/10/13 09:37:19;;;;;;;12.33;10.87;;;17.30;99.90;;;;;;6069229;23;20450;-77
2022/10/13 09:39:47;;;;;;;11.17;9.73;;;17.10;99.90;;;;;;6075673;23;20433;-77
2022/10/13 09:42:25;;;;;;;15.00;10.03;;;16.90;99.90;;;;;;6060678;23;20527;-77
2022/10/13 09:45:01;;;;;;;11.47;10.10;;;16.70;99.90;;;;;;6068416;23;20463;-77
2022/10/13 09:47:32;;;;;;;9.83;8.73;;;16.50;99.90;;;;;;6071993;23;20940;-77
2022/10/13 09:50:14;;;;;;;11.50;9.80;;;16.50;99.90;;;;;;6074028;23;20422;-77
2022/10/13 09:52:42;;;;;;;11.63;9.80;;;16.50;99.90;;;;;;6065459;23;20477;-76
2022/10/13 09:55:28;;;;;;;14.30;10.23;;;16.40;99.90;;;;;;6054364;23;20441;-76
2022/10/13 09:58:00;;;;;;;11.60;9.87;;;16.20;99.90;;;;;;6037531;23;20435;-76
2022/10/13 10:00:28;;;;;;;12.60;10.70;;;16.10;99.90;;;;;;6073752;23;20431;-77
2022/10/13 10:03:01;;;;;;;10.87;9.60;;;16.10;99.90;;;;;;6076705;23;20522;-76
2022/10/13 10:05:38;;;;;;;10.03;9.03;;;16.10;99.90;;;;;;6069459;23;20450;-77
2022/10/13 10:08:14;;;;;;;11.50;8.73;;;16.10;99.90;;;;;;6074100;23;20529;-76
2022/10/13 10:10:41;;;;;;;10.63;9.37;;;16.20;99.90;;;;;;6069082;23;20430;-76
2022/10/13 10:13:11;;;;;;;9.53;8.40;;;16.30;99.90;;;;;;6067529;23;20431;-76
2022/10/13 10:15:47;;;;;;;13.20;8.80;;;16.30;99.90;;;;;;6038164;23;20429;-77
2022/10/13 10:18:19;;;;;;;10.80;9.50;;;16.30;99.90;;;;;;6074135;23;20515;-76
2022/10/13 10:20:56;;;;;;;11.77;9.23;;;16.30;99.90;;;;;;6074890;23;20428;-76
2022/10/13 10:23:42;;;;;;;9.37;8.37;;;16.30;99.90;;;;;;6020794;23;20462;-76
2022/10/13 10:26:16;;;;;;;12.40;8.60;;;16.20;99.90;;;;;;6048894;23;20463;-76
2022/10/13 10:29:14;;;;;;;10.27;7.73;;;16.30;99.90;;;;;;6049686;23;20433;-76
2022/10/13 10:31:54;;;;;;;9.23;7.87;;;16.30;99.90;;;;;;6048333;23;20785;-77
2022/10/13 10:34:35;;;;;;;9.73;7.97;;;16.40;99.90;;;;;;6063016;23;20427;-76
2022/10/13 10:37:16;;;;;;;9.83;8.17;;;16.40;99.90;;;;;;6065822;23;20456;-76
2022/10/13 10:39:49;;;;;;;10.20;7.00;;;16.30;99.90;;;;;;6078388;23;20433;-76
2022/10/13 10:42:38;;;;;;;10.93;8.37;;;16.20;99.90;;;;;;6026625;23;20912;-76
2022/10/13 10:45:15;;;;;;;10.30;8.03;;;16.10;99.90;;;;;;6066479;23;20889;-76
2022/10/13 10:47:47;;;;;;;9.63;7.93;;;16.10;99.90;;;;;;6069109;23;20511;-76
2022/10/13 10:50:19;;;;;;;9.70;7.73;;;16.00;99.90;;;;;;6018409;23;20521;-76
2022/10/13 10:52:55;;;;;;;8.00;7.23;;;16.00;99.90;;;;;;6070525;23;20435;-76
2022/10/13 10:55:28;;;;;;;7.93;7.10;;;16.10;99.90;;;;;;6065727;23;20443;-77
2022/10/13 10:58:12;;;;;;;14.40;7.60;;;16.20;99.90;;;;;;6074589;23;20435;-76
2022/10/13 11:00:45;;;;;;;8.47;7.50;;;16.20;99.90;;;;;;6057099;23;20434;-77
2022/10/13 11:03:25;;;;;;;9.43;7.40;;;16.30;99.90;;;;;;6074628;23;20774;-77
2022/10/13 11:06:02;;;;;;;7.50;6.70;;;16.30;99.90;;;;;;6053460;23;20521;-77
2022/10/13 11:08:39;;;;;;;10.07;7.67;;;16.50;99.90;;;;;;6063781;23;20430;-76
2022/10/13 11:11:29;;;;;;;11.57;7.50;;;16.60;99.90;;;;;;6022159;23;20492;-76
2022/10/13 11:14:00;;;;;;;8.07;7.10;;;16.70;99.90;;;;;;6040915;23;20498;-77
2022/10/13 11:16:30;;;;;;;10.33;7.13;;;16.90;99.90;;;;;;6071317;23;20926;-76
2022/10/13 11:19:05;;;;;;;8.57;6.40;;;16.90;99.90;;;;;;6074318;23;20423;-76
2022/10/13 11:22:13;;;;;;;10.20;7.10;;;16.90;99.90;;;;;;6076712;23;20908;-76
2022/10/13 11:24:52;;;;;;;8.73;6.87;;;17.00;99.90;;;;;;6073935;23;20438;-76
2022/10/13 11:27:42;;;;;;;8.90;7.10;;;17.10;99.90;;;;;;6048703;23;20887;-77
2022/10/13 11:30:42;;;;;;;6.97;6.33;;;17.20;99.90;;;;;;6044869;23;20991;-77
2022/10/13 11:33:48;;;;;;;7.83;6.73;;;17.40;99.90;;;;;;6058221;23;20836;-77
2022/10/13 11:36:43;;;;;;;7.73;7.00;;;17.60;99.90;;;;;;6041626;23;20435;-76
2022/10/13 11:39:54;;;;;;;7.27;6.50;;;17.50;99.90;;;;;;6067958;23;20593;-77
2022/10/13 11:42:35;;;;;;;7.57;6.73;;;17.40;99.90;;;;;;6064673;23;20419;-77
2022/10/13 11:45:12;;;;;;;7.93;6.40;;;17.40;99.90;;;;;;6063072;23;20423;-76
2022/10/13 11:48:03;;;;;;;9.83;6.60;;;17.40;99.90;;;;;;6074029;23;20781;-76
2022/10/13 11:50:38;;;;;;;6.93;6.00;;;17.30;99.90;;;;;;6057663;23;20487;-77
2022/10/13 11:53:15;;;;;;;7.97;6.60;;;17.40;99.90;;;;;;6063269;23;20443;-76
2022/10/13 11:55:50;;;;;;;9.37;6.60;;;17.50;99.90;;;;;;6057145;23;20461;-77
2022/10/13 11:58:20;;;;;;;7.80;6.47;;;17.40;99.90;;;;;;6051117;23;20435;-76
2022/10/13 12:00:53;;;;;;;11.67;7.20;;;17.50;99.90;;;;;;6040030;23;20431;-76
2022/10/13 12:03:21;;;;;;;7.53;6.30;;;17.50;99.90;;;;;;6048325;23;20431;-77
2022/10/13 12:05:51;;;;;;;7.57;6.40;;;17.60;99.90;;;;;;6046916;23;20534;-76
2022/10/13 12:08:19;;;;;;;8.87;6.77;;;17.60;99.90;;;;;;6048101;23;20943;-77
2022/10/13 12:10:56;;;;;;;8.93;7.60;;;17.60;99.90;;;;;;6052245;23;20912;-77
2022/10/13 12:13:26;;;;;;;7.33;6.60;;;17.50;99.90;;;;;;6071960;23;20512;-77
2022/10/13 12:16:02;;;;;;;7.03;6.30;;;17.50;99.90;;;;;;6065860;23;20419;-77
2022/10/13 12:18:32;;;;;;;9.53;6.80;;;17.50;99.90;;;;;;6067986;23;21029;-77
2022/10/13 12:21:02;;;;;;;9.10;6.10;;;17.60;99.90;;;;;;6049215;23;20770;-76
2022/10/13 12:23:30;;;;;;;7.57;6.23;;;17.80;99.90;;;;;;6070775;23;20522;-77
2022/10/13 12:25:59;;;;;;;7.00;5.80;;;17.90;99.90;;;;;;6077967;23;20931;-77
2022/10/13 12:28:29;;;;;;;6.63;5.80;;;18.00;99.90;;;;;;6049517;23;20440;-77
2022/10/13 12:30:59;;;;;;;7.30;6.10;;;18.10;99.90;;;;;;6058298;23;20438;-76
2022/10/13 12:33:29;;;;;;;6.40;5.40;;;18.40;99.90;;;;;;6074365;23;20946;-77
2022/10/13 12:36:10;;;;;;;6.97;6.20;;;18.70;99.90;;;;;;6077262;23;20456;-77
2022/10/13 12:38:39;;;;;;;7.03;6.40;;;19.00;99.90;;;;;;6077425;23;20446;-77
2022/10/13 12:41:08;;;;;;;7.63;6.83;;;19.00;99.90;;;;;;6033311;23;20437;-76
2022/10/13 12:43:35;;;;;;;7.20;6.00;;;19.30;99.90;;;;;;6075413;23;20554;-77
2022/10/13 12:46:02;;;;;;;6.67;5.37;;;19.40;99.90;;;;;;6073282;23;20488;-77
2022/10/13 12:48:32;;;;;;;6.67;5.73;;;19.50;99.90;;;;;;6064310;23;20516;-76
2022/10/13 12:51:19;;;;;;;9.13;6.60;;;19.50;99.90;;;;;;6074519;23;20435;-77